• Join FlightAware (Why Join?)
  • Login
  • US Flag 
02:11PM EDT


 

Airport Tracker/Info


-or-


 

Live Flight TrackerFlight Track Log ✈ FDX1482 ✈ 04-May-2013 ✈ KMEM - KBWI

Flight Track Log - Related Links

Times and Time Zones

All times are in EDT time to prevent confusion due to time zone crossing. See the FDX1482 flight status page for this flight to view local times or setup timezone preferences in your user account.

Time Position Orientation Groundspeed Altitude Reporting Facility
EDT Latitude Longitude Course Direction KTS MPH feet Rate Location/Type
04:41AM 35.0167 -89.9667 73° East 151 174 1,700  Level KMEM
04:42AM 34.9833 -89.9667 180° South 195 224 3,000 2,760 Climbing KMEM
04:43AM 34.9333 -89.8833 126° Southeast 319 367 7,000 3,480 Climbing KMEM
04:45AM 34.9892 -89.7411 64° Northeast 338 389 12,300 3,180 Climbing Memphis Center
04:46AM 35.0447 -89.6039 64° Northeast 374 430 15,300 3,240 Climbing Memphis Center
04:47AM 35.2180 -89.2115 73° East  Level FlightAware Approximate
04:47AM 35.0981 -89.4739 63° Northeast 415 478 18,800  Level Memphis Center
04:48AM 35.1556 -89.3411 62° Northeast 433 498 22,200 3,060 Climbing Memphis Center
04:49AM 35.2125 -89.2033 63° Northeast 441 507 25,000 2,400 Climbing Memphis Center
04:50AM 35.2675 -89.0625 64° Northeast 446 513 27,000 2,400 Climbing Memphis Center
04:51AM 35.3222 -88.9192 65° Northeast 453 521 29,800 2,460 Climbing Memphis Center
04:52AM 35.3747 -88.7808 65° Northeast 453 521 32,000 1,800 Climbing Memphis Center
04:53AM 35.4272 -88.6397 65° Northeast 453 521 33,400 180 Climbing Memphis Center
04:59AM 35.7880 -87.6830 65° Northeast 35,000 120 Climbing FlightAware
05:00AM 35.8280 -87.5760 65° Northeast 35,000  Level FlightAware
05:01AM 35.8540 -87.5050 66° East 35,000  Level FlightAware
05:01AM 35.8940 -87.3980 65° Northeast 35,000  Level FlightAware
05:02AM 35.9190 -87.3290 66° East 35,000  Level FlightAware
05:03AM 35.9530 -87.2350 66° East 35,000  Level FlightAware
05:03AM 35.9800 -87.1590 66° East 35,000  Level FlightAware
05:04AM 36.0140 -87.0660 66° East 35,000  Level FlightAware
05:05AM 36.0470 -86.9750 66° East 35,000  Level FlightAware
05:05AM 36.0780 -86.8900 66° East 35,000  Level FlightAware
05:05AM 36.0844 -86.8716 67° East 435 501 35,000  Level FlightAware ADS-B
05:06AM 36.1064 -86.8109 66° East 194 223 35,000  Level FlightAware ADS-B
05:06AM 36.1382 -86.7220 66° East 463 533 35,000  Level FlightAware ADS-B
05:07AM 36.1615 -86.6571 66° East 320 368 35,000  Level FlightAware ADS-B
05:07AM 36.1926 -86.5702 66° East 465 535 35,000  Level FlightAware ADS-B
05:08AM 36.2300 -86.4660 66° East 35,000  Level FlightAware
05:09AM 36.2655 -86.3642 67° East 458 527 35,000 60 Level FlightAware ADS-B
05:10AM 36.3010 -86.2640 66° East 35,100 60 Climbing FlightAware
05:10AM 36.3115 -86.2343 66° East 426 490 35,100  Level FlightAware ADS-B
05:10AM 36.3244 -86.1975 66° East 13 15 35,100  Level FlightAware ADS-B
05:11AM 36.3683 -86.0726 66° East 465 535 35,100  Level FlightAware ADS-B
05:11AM 36.3943 -85.9986 66° East 469 540 35,100  Level FlightAware ADS-B
05:12AM 36.4211 -85.9220 66° East 470 541 35,100  Level FlightAware ADS-B
05:13AM 36.4715 -85.7770 67° East 477 549 35,100  Level FlightAware ADS-B
05:13AM 36.4978 -85.7012 67° East 455 524 35,100  Level FlightAware ADS-B
05:14AM 36.5253 -85.6219 67° East 479 551 35,100  Level FlightAware ADS-B
05:14AM 36.5517 -85.5454 67° East 464 534 35,100  Level FlightAware ADS-B
05:15AM 36.5783 -85.4681 67° East 470 541 35,100  Level FlightAware ADS-B
05:15AM 36.6104 -85.3746 67° East 453 521 35,100  Level FlightAware ADS-B
05:16AM 36.6362 -85.2992 67° East 470 541 35,100  Level FlightAware ADS-B
05:16AM 36.6624 -85.2223 67° East 458 527 35,100  Level FlightAware ADS-B
05:17AM 36.6916 -85.1367 67° East 486 559 35,100  Level FlightAware ADS-B
05:18AM 36.7179 -85.0594 67° East 463 533 35,100  Level FlightAware ADS-B
05:18AM 36.7448 -84.9798 67° East 471 542 35,100  Level FlightAware ADS-B
05:19AM 36.7700 -84.9049 67° East 476 548 35,100  Level FlightAware ADS-B
05:19AM 36.7960 -84.8275 67° East 471 542 35,100  Level FlightAware ADS-B
05:20AM 36.8215 -84.7511 67° East 470 541 35,100  Level FlightAware ADS-B
05:21AM 36.8687 -84.6103 67° East 471 542 35,100  Level FlightAware ADS-B
05:21AM 36.8998 -84.5171 67° East 469 540 35,100  Level FlightAware ADS-B
05:22AM 36.9249 -84.4418 67° East 469 540 35,100  Level FlightAware ADS-B
05:22AM 36.9510 -84.3633 67° East 484 557 35,100  Level FlightAware ADS-B
05:23AM 36.9760 -84.2873 68° East 473 544 35,100  Level FlightAware ADS-B
05:23AM 37.0013 -84.2109 67° East 476 548 35,100  Level FlightAware ADS-B
05:24AM 37.0269 -84.1335 67° East 469 540 35,100  Level FlightAware ADS-B
05:24AM 37.0517 -84.0572 68° East 472 543 35,100  Level FlightAware ADS-B
05:25AM 37.0772 -83.9795 68° East 477 549 35,100  Level FlightAware ADS-B
05:25AM 37.1022 -83.9026 68° East 482 555 35,100  Level FlightAware ADS-B
05:26AM 37.1314 -83.8134 68° East 491 565 35,100 -120 Level FlightAware ADS-B
05:27AM 37.1721 -83.6884 68° East 469 540 35,000 -120 Descending FlightAware ADS-B
05:27AM 37.1961 -83.6138 68° East 476 548 35,000  Level FlightAware ADS-B
05:28AM 37.2201 -83.5388 68° East 468 539 35,000  Level FlightAware ADS-B
05:28AM 37.2449 -83.4621 68° East 472 543 35,000  Level FlightAware ADS-B
05:29AM 37.3015 -83.2853 68° East 471 542 35,000  Level FlightAware ADS-B
05:30AM 37.3262 -83.2082 68° East 472 543 35,000  Level FlightAware ADS-B
05:30AM 37.3551 -83.1171 68° East 464 534 35,000  Level FlightAware ADS-B
05:31AM 37.3808 -83.0357 68° East 477 549 35,000  Level FlightAware ADS-B
05:32AM 37.4081 -82.9488 68° East 477 549 35,000  Level FlightAware ADS-B
05:32AM 37.4407 -82.8452 68° East 479 551 35,000  Level FlightAware ADS-B
05:33AM 37.4706 -82.7502 68° East 476 548 35,000  Level FlightAware ADS-B
05:36AM 37.6210 -82.2508 69° East 472 543 35,000  Level FlightAware ADS-B
05:37AM 37.6450 -82.1691 70° East 470 541 35,000  Level FlightAware ADS-B
05:37AM 37.6689 -82.0883 69° East 479 551 35,000  Level FlightAware ADS-B
05:38AM 37.6924 -82.0090 69° East 480 552 35,000  Level FlightAware ADS-B
05:38AM 37.7166 -81.9273 69° East 474 545 35,000  Level FlightAware ADS-B
05:39AM 37.7471 -81.8229 70° East 459 528 35,000  Level FlightAware ADS-B
05:39AM 37.7707 -81.7417 70° East 470 541 35,000  Level FlightAware ADS-B
05:40AM 37.8080 -81.6120 70° East 35,000  Level FlightAware
05:40AM 37.8160 -81.5862 69° East 468 539 35,000  Level FlightAware ADS-B
05:41AM 37.8458 -81.4832 70° East 469 540 35,000  Level FlightAware ADS-B
05:42AM 37.8730 -81.3890 70° East 35,000  Level FlightAware
05:42AM 37.8839 -81.3504 70° East 469 540 35,000  Level FlightAware ADS-B
05:43AM 37.9372 -81.1648 70° East 471 542 35,000  Level FlightAware ADS-B
05:44AM 37.9712 -81.0456 70° East 476 548 35,000 -1,020 Level FlightAware ADS-B
05:44AM 37.9930 -80.9690 70° East 35,000 -1,020 Level FlightAware
05:46AM 38.0610 -80.7290 70° East 35,000 -1,020 Level FlightAware
05:47AM 38.0900 -80.6230 71° East 35,000 -1,080 Level FlightAware
05:48AM 38.1400 -80.4470 70° East 35,000 -1,140 Level FlightAware
05:48AM 38.1820 -80.3210 67° East 35,000 -1,140 Level FlightAware
05:50AM 38.2450 -80.1500 65° Northeast 35,000 -1,200 Level FlightAware
05:50AM 38.2820 -80.0500 65° Northeast 35,000 -1,260 Level FlightAware
05:51AM 38.3220 -79.9410 65° Northeast 35,000 -1,260 Level FlightAware
05:52AM 38.3630 -79.8290 65° Northeast 35,000 -1,320 Level FlightAware
05:52AM 38.4010 -79.7270 65° Northeast 35,000 -1,320 Level FlightAware
05:54AM 38.4640 -79.5520 65° Northeast 35,000 -1,380 Level FlightAware
05:55AM 38.5180 -79.3960 66° East 35,000 -1,440 Level FlightAware
05:56AM 38.5250 -79.3760 66° East 35,000 -1,500 Level FlightAware
05:56AM 38.5960 -79.1690 66° East 35,000 -1,560 Level FlightAware
05:57AM 38.6360 -79.0510 67° East 35,000 -1,560 Level FlightAware
05:58AM 38.6770 -78.9310 66° East 35,000 -1,620 Level FlightAware
05:58AM 38.7120 -78.8280 66° East 34,800 -1,680 Descending FlightAware
05:59AM 38.7500 -78.7150 67° East 32,800 -1,740 Descending FlightAware
06:00AM 38.7850 -78.6130 66° East 30,600 -1,740 Descending FlightAware
06:00AM 38.8200 -78.5070 67° East 28,200 -1,680 Descending FlightAware
06:01AM 38.8580 -78.3920 67° East 25,800 -1,560 Descending FlightAware
06:02AM 38.8900 -78.2970 67° East 24,100 -1,500 Descending FlightAware
06:02AM 38.9230 -78.1970 67° East 22,300 -1,440 Descending FlightAware
06:03AM 38.9570 -78.0950 67° East 20,400 -1,380 Descending FlightAware
06:04AM 38.9850 -78.0080 67° East 18,700 -1,320 Descending FlightAware
06:05AM 39.0170 -77.9110 67° East 16,500 -1,260 Descending FlightAware
06:05AM 39.0450 -77.8260 67° East 15,000 -1,200 Descending FlightAware
06:06AM 39.0730 -77.7490 65° Northeast 14,600 -1,140 Descending FlightAware
06:07AM 39.1060 -77.6620 64° Northeast 14,600 -1,140 Level FlightAware
06:07AM 39.1350 -77.5860 64° Northeast 13,300 -1,260 Descending FlightAware
06:08AM 39.1650 -77.5030 65° Northeast 11,600 -1,200 Descending FlightAware
06:09AM 39.1900 -77.4250 68° East 10,600 -1,080 Descending FlightAware
06:09AM 39.1920 -77.3470 88° East 10,300 -1,080 Descending FlightAware
06:10AM 39.1920 -77.3090 90° East 9,400 -1,140 Descending FlightAware
06:10AM 39.1910 -77.2590 91° East 8,200 -1,080 Descending FlightAware
06:11AM 39.1910 -77.2200 90° East 7,300 -960 Descending FlightAware
06:11AM 39.1900 -77.1800 92° East 6,100 -900 Descending FlightAware
06:12AM 39.1900 -77.1530 90° East 5,500 -780 Descending FlightAware
06:12AM 39.1900 -77.1190 90° East 4,600 -720 Descending FlightAware
06:12AM 39.1890 -77.0750 92° East 3,900 -600 Descending FlightAware
06:13AM 39.1890 -77.0380 90° East 3,700 -540 Descending FlightAware
06:14AM 39.1900 -76.9950 88° East 3,300 -540 Descending FlightAware
06:14AM 39.1900 -76.9880 90° East 3,200 -540 Descending FlightAware
06:14AM 39.1890 -76.9450 92° East 2,700 -540 Descending FlightAware
06:15AM 39.1870 -76.9280 99° East 2,700 -480 Level FlightAware
06:15AM 39.1860 -76.9070 94° East 2,700 -540 Level FlightAware
06:15AM 39.1850 -76.8810 93° East 2,700 -600 Level FlightAware
06:16AM 39.1830 -76.8500 95° East 2,200 -720 Descending FlightAware
06:16AM 39.1810 -76.8160 94° East 1,700 -600 Descending FlightAware
06:17AM 39.1810 -76.8020 90° East 1,500 -480 Descending FlightAware
06:18AM 39.1833 -76.7500 90° East 128 147 1,100 -600 Descending Potomac TRACON
06:19AM 39.1833 -76.7000 90° East 123 142 400 -720 Descending Potomac TRACON
06:21AM 39.1667 -76.6667 90° East  Level FlightAware Approximate
06:28AM 39.1754 -76.6683 90° East  Level Estimated
06:29AM 39.1754 -76.6683 90° East  Level Estimated
06:30AM 39.1754 -76.6683 90° East  Level Estimated
06:31AM 39.1754 -76.6683 90° East  Level Estimated
06:32AM 39.1754 -76.6683 90° East  Level Estimated